Kezdőlap
METAR-TAF:

METAR-TAF

Repülőterek :

Worthington Municipal Airport

Worthington, Minnesota, Amerikai Egyesült Államok

földrajzi szélesség: 43-39N, földrajzi hosszúság: 095-35W, magasság: 480 m

Jelenlegi meteorológiai megfigyelések

A jelentés 18 perccel ezelõtt készült, 22:04 UTC
Északnyugati szél 21 kt széllökések: 29 kt
Hőmérséklet 19°C
Páratartalom 49%
Légköri nyomás 1012 hPa
Kevés felhő 6000 lábon
Szakadozott felhőzet 9000 lábon
Szakadozott felhőzet 11000 lábon
zivatar a közelben

METAR: KOTG 272204Z AUTO 32021G29KT VCTS FEW060 BKN090 BKN110 19/08 A2989 RMK AO2 PK WND 32029/2200 LTG DSNT NE AND W TSB2158 PWINO $

Idő: 17:22 (22:22 UTC)


TAF: hiányzik

Meteorológiai megfigyelések és előrejelzések több, mint 4000 repülőtéren (METAR és TAF jelentéseket).

A térképen piros és sárga pontok jelzik az elérhető meteorológiai állomásokat.

Mozgassa az egeret a pont fölött, hogy megjelenjen az állomás neve.

Azután kattintson az időjárási megfigyelések és előrejelzések megtekintéséhez.

A térkép megváltoztatása: kattintson a fekete keresztel jelölt zöld gombra ráközelítéshez, a vonallal jelölt zöld gombra távolításhoz, vagy a zöld nyilakra a szomszédos térképek eléréséhez.


METAR-TAF: